sensor_id;sensor_type;location;lat;lon;timestamp;temperature;humidity
2447;DHT22;26430;48.818;9.244;2022-09-20T00:00:41;11.20;99.90
2447;DHT22;26430;48.818;9.244;2022-09-20T00:03:07;11.20;99.90
2447;DHT22;26430;48.818;9.244;2022-09-20T00:05:34;11.20;99.90
2447;DHT22;26430;48.818;9.244;2022-09-20T00:08:02;11.20;99.90
2447;DHT22;26430;48.818;9.244;2022-09-20T00:10:29;11.00;99.90
2447;DHT22;26430;48.818;9.244;2022-09-20T00:12:56;10.50;99.90
2447;DHT22;26430;48.818;9.244;2022-09-20T00:15:22;10.50;99.90
2447;DHT22;26430;48.818;9.244;2022-09-20T00:17:47;10.60;99.90
2447;DHT22;26430;48.818;9.244;2022-09-20T00:20:13;10.80;99.90
2447;DHT22;26430;48.818;9.244;2022-09-20T00:22:39;10.80;99.90
2447;DHT22;26430;48.818;9.244;2022-09-20T00:25:05;10.70;99.90
2447;DHT22;26430;48.818;9.244;2022-09-20T00:27:30;10.30;99.90
2447;DHT22;26430;48.818;9.244;2022-09-20T00:29:56;10.10;99.90
2447;DHT22;26430;48.818;9.244;2022-09-20T00:32:23;10.10;99.90
2447;DHT22;26430;48.818;9.244;2022-09-20T00:34:49;10.30;99.90
2447;DHT22;26430;48.818;9.244;2022-09-20T00:37:34;10.30;99.90
2447;DHT22;26430;48.818;9.244;2022-09-20T00:40:00;10.30;99.90
2447;DHT22;26430;48.818;9.244;2022-09-20T00:42:28;10.30;99.90
2447;DHT22;26430;48.818;9.244;2022-09-20T00:45:04;10.30;99.90
2447;DHT22;26430;48.818;9.244;2022-09-20T00:52:56;10.60;99.90
2447;DHT22;26430;48.818;9.244;2022-09-20T00:55:22;10.70;99.90
2447;DHT22;26430;48.818;9.244;2022-09-20T00:57:49;10.50;99.90
2447;DHT22;26430;48.818;9.244;2022-09-20T01:00:15;10.50;99.90
2447;DHT22;26430;48.818;9.244;2022-09-20T01:02:47;10.40;99.90
2447;DHT22;26430;48.818;9.244;2022-09-20T01:05:14;10.40;99.90
2447;DHT22;26430;48.818;9.244;2022-09-20T01:07:42;10.50;99.90
2447;DHT22;26430;48.818;9.244;2022-09-20T01:10:09;10.40;99.90
2447;DHT22;26430;48.818;9.244;2022-09-20T01:12:36;10.50;99.90
2447;DHT22;26430;48.818;9.244;2022-09-20T01:15:05;10.40;99.90
2447;DHT22;26430;48.818;9.244;2022-09-20T01:17:34;10.40;99.90
2447;DHT22;26430;48.818;9.244;2022-09-20T01:28:22;10.30;99.90
2447;DHT22;26430;48.818;9.244;2022-09-20T01:31:11;10.30;99.90
2447;DHT22;26430;48.818;9.244;2022-09-20T01:33:57;10.30;99.90
2447;DHT22;26430;48.818;9.244;2022-09-20T01:36:47;10.30;99.90
2447;DHT22;26430;48.818;9.244;2022-09-20T01:39:50;10.40;99.90
2447;DHT22;26430;48.818;9.244;2022-09-20T01:42:23;10.50;99.90
2447;DHT22;26430;48.818;9.244;2022-09-20T02:04:36;10.20;99.90
2447;DHT22;26430;48.818;9.244;2022-09-20T02:23:26;10.90;99.90
2447;DHT22;26430;48.818;9.244;2022-09-20T02:34:43;10.90;99.90
2447;DHT22;26430;48.818;9.244;2022-09-20T02:40:22;10.70;99.90
2447;DHT22;26430;48.818;9.244;2022-09-20T02:46:07;10.70;99.90
2447;DHT22;26430;48.818;9.244;2022-09-20T02:51:45;10.50;99.90
2447;DHT22;26430;48.818;9.244;2022-09-20T02:59:58;10.30;99.90
2447;DHT22;26430;48.818;9.244;2022-09-20T03:05:12;10.30;99.90
2447;DHT22;26430;48.818;9.244;2022-09-20T03:18:48;10.10;99.90
2447;DHT22;26430;48.818;9.244;2022-09-20T03:24:38;10.10;99.90
2447;DHT22;26430;48.818;9.244;2022-09-20T03:39:00;10.50;99.90
2447;DHT22;26430;48.818;9.244;2022-09-20T03:46:28;10.50;99.90
2447;DHT22;26430;48.818;9.244;2022-09-20T03:54:55;10.60;99.90
2447;DHT22;26430;48.818;9.244;2022-09-20T04:00:31;10.50;99.90
2447;DHT22;26430;48.818;9.244;2022-09-20T04:18:00;10.80;99.90
2447;DHT22;26430;48.818;9.244;2022-09-20T04:20:39;10.90;99.90
2447;DHT22;26430;48.818;9.244;2022-09-20T04:25:55;10.80;99.90
2447;DHT22;26430;48.818;9.244;2022-09-20T04:28:29;10.90;99.90
2447;DHT22;26430;48.818;9.244;2022-09-20T04:31:04;10.90;99.90
2447;DHT22;26430;48.818;9.244;2022-09-20T04:33:38;10.80;99.90
2447;DHT22;26430;48.818;9.244;2022-09-20T04:36:30;10.80;99.90
2447;DHT22;26430;48.818;9.244;2022-09-20T04:50:41;10.60;99.90
2447;DHT22;26430;48.818;9.244;2022-09-20T04:56:31;10.50;99.90
2447;DHT22;26430;48.818;9.244;2022-09-20T04:59:09;10.60;99.90
2447;DHT22;26430;48.818;9.244;2022-09-20T05:02:19;10.60;99.90
2447;DHT22;26430;48.818;9.244;2022-09-20T05:13:55;10.60;99.90
2447;DHT22;26430;48.818;9.244;2022-09-20T05:30:05;10.40;99.90
2447;DHT22;26430;48.818;9.244;2022-09-20T05:32:51;10.40;99.90
2447;DHT22;26430;48.818;9.244;2022-09-20T05:38:21;10.30;99.90
2447;DHT22;26430;48.818;9.244;2022-09-20T05:41:29;10.30;99.90
2447;DHT22;26430;48.818;9.244;2022-09-20T05:58:27;10.10;99.90
2447;DHT22;26430;48.818;9.244;2022-09-20T06:01:10;10.10;99.90
2447;DHT22;26430;48.818;9.244;2022-09-20T06:06:54;10.20;99.90
2447;DHT22;26430;48.818;9.244;2022-09-20T06:10:16;10.20;99.90
2447;DHT22;26430;48.818;9.244;2022-09-20T06:12:41;10.20;99.90
2447;DHT22;26430;48.818;9.244;2022-09-20T06:18:25;10.30;99.90
2447;DHT22;26430;48.818;9.244;2022-09-20T06:21:45;10.40;99.90
2447;DHT22;26430;48.818;9.244;2022-09-20T06:23:51;10.40;99.90
2447;DHT22;26430;48.818;9.244;2022-09-20T06:26:24;10.40;99.90
2447;DHT22;26430;48.818;9.244;2022-09-20T06:28:56;10.40;99.90
2447;DHT22;26430;48.818;9.244;2022-09-20T06:31:24;10.50;99.90
2447;DHT22;26430;48.818;9.244;2022-09-20T06:33:59;10.50;99.90
2447;DHT22;26430;48.818;9.244;2022-09-20T06:36:35;10.60;99.90
2447;DHT22;26430;48.818;9.244;2022-09-20T06:40:01;10.80;99.90
2447;DHT22;26430;48.818;9.244;2022-09-20T06:42:37;10.70;99.90
2447;DHT22;26430;48.818;9.244;2022-09-20T06:45:03;10.70;99.90
2447;DHT22;26430;48.818;9.244;2022-09-20T06:47:29;10.70;99.90
2447;DHT22;26430;48.818;9.244;2022-09-20T06:49:54;10.60;99.90
2447;DHT22;26430;48.818;9.244;2022-09-20T06:52:21;10.80;99.90
2447;DHT22;26430;48.818;9.244;2022-09-20T06:54:49;10.90;99.90
2447;DHT22;26430;48.818;9.244;2022-09-20T06:57:21;10.90;99.90
2447;DHT22;26430;48.818;9.244;2022-09-20T06:59:47;11.00;99.90
2447;DHT22;26430;48.818;9.244;2022-09-20T07:02:13;11.00;99.90
2447;DHT22;26430;48.818;9.244;2022-09-20T07:04:38;11.00;99.90
2447;DHT22;26430;48.818;9.244;2022-09-20T07:07:06;11.20;99.90
2447;DHT22;26430;48.818;9.244;2022-09-20T07:09:32;11.30;99.90
2447;DHT22;26430;48.818;9.244;2022-09-20T07:11:58;11.30;99.90
2447;DHT22;26430;48.818;9.244;2022-09-20T07:14:25;11.30;99.90
2447;DHT22;26430;48.818;9.244;2022-09-20T07:16:54;11.30;99.90
2447;DHT22;26430;48.818;9.244;2022-09-20T07:19:20;11.40;99.90
2447;DHT22;26430;48.818;9.244;2022-09-20T07:21:47;11.40;99.90
2447;DHT22;26430;48.818;9.244;2022-09-20T07:24:13;11.30;99.90
2447;DHT22;26430;48.818;9.244;2022-09-20T07:26:40;11.50;99.90
2447;DHT22;26430;48.818;9.244;2022-09-20T07:29:19;11.40;99.90
2447;DHT22;26430;48.818;9.244;2022-09-20T07:31:44;11.30;99.90
2447;DHT22;26430;48.818;9.244;2022-09-20T07:34:10;11.50;99.90
2447;DHT22;26430;48.818;9.244;2022-09-20T07:36:35;11.50;99.90
2447;DHT22;26430;48.818;9.244;2022-09-20T07:39:01;11.60;99.90
2447;DHT22;26430;48.818;9.244;2022-09-20T07:41:27;11.60;99.90
2447;DHT22;26430;48.818;9.244;2022-09-20T07:43:55;11.60;99.90
2447;DHT22;26430;48.818;9.244;2022-09-20T07:46:41;11.70;99.90
2447;DHT22;26430;48.818;9.244;2022-09-20T07:49:07;11.60;99.90
2447;DHT22;26430;48.818;9.244;2022-09-20T07:51:33;11.60;99.90
2447;DHT22;26430;48.818;9.244;2022-09-20T07:53:59;11.70;99.90
2447;DHT22;26430;48.818;9.244;2022-09-20T07:56:25;11.60;99.90
2447;DHT22;26430;48.818;9.244;2022-09-20T07:58:51;11.60;99.90
2447;DHT22;26430;48.818;9.244;2022-09-20T08:01:16;11.60;99.90
2447;DHT22;26430;48.818;9.244;2022-09-20T08:03:42;11.70;99.90
2447;DHT22;26430;48.818;9.244;2022-09-20T08:06:11;11.70;99.90
2447;DHT22;26430;48.818;9.244;2022-09-20T08:08:41;11.80;99.90
2447;DHT22;26430;48.818;9.244;2022-09-20T08:11:15;11.80;99.90
2447;DHT22;26430;48.818;9.244;2022-09-20T08:13:47;11.90;99.90
2447;DHT22;26430;48.818;9.244;2022-09-20T08:16:14;11.90;99.90
2447;DHT22;26430;48.818;9.244;2022-09-20T08:18:47;12.10;99.90
2447;DHT22;26430;48.818;9.244;2022-09-20T08:21:13;12.20;99.90
2447;DHT22;26430;48.818;9.244;2022-09-20T08:23:43;12.30;99.90
2447;DHT22;26430;48.818;9.244;2022-09-20T08:26:12;12.30;99.90
2447;DHT22;26430;48.818;9.244;2022-09-20T08:28:39;12.50;99.90
2447;DHT22;26430;48.818;9.244;2022-09-20T08:31:10;12.80;99.90
2447;DHT22;26430;48.818;9.244;2022-09-20T08:33:38;12.90;99.90
2447;DHT22;26430;48.818;9.244;2022-09-20T08:36:09;13.10;99.90
2447;DHT22;26430;48.818;9.244;2022-09-20T08:38:36;13.10;99.90
2447;DHT22;26430;48.818;9.244;2022-09-20T08:41:39;13.20;99.90
2447;DHT22;26430;48.818;9.244;2022-09-20T08:44:23;13.30;99.90
2447;DHT22;26430;48.818;9.244;2022-09-20T08:46:55;13.00;99.90
2447;DHT22;26430;48.818;9.244;2022-09-20T08:49:27;13.20;99.90
2447;DHT22;26430;48.818;9.244;2022-09-20T08:51:55;13.30;99.90
2447;DHT22;26430;48.818;9.244;2022-09-20T08:54:24;13.40;99.90
2447;DHT22;26430;48.818;9.244;2022-09-20T08:56:51;13.50;99.90
2447;DHT22;26430;48.818;9.244;2022-09-20T08:59:19;13.60;99.90
2447;DHT22;26430;48.818;9.244;2022-09-20T09:01:46;13.50;99.90
2447;DHT22;26430;48.818;9.244;2022-09-20T09:04:17;13.40;99.90
2447;DHT22;26430;48.818;9.244;2022-09-20T09:06:44;13.30;99.90
2447;DHT22;26430;48.818;9.244;2022-09-20T09:09:22;13.40;99.90
2447;DHT22;26430;48.818;9.244;2022-09-20T09:11:50;13.50;99.90
2447;DHT22;26430;48.818;9.244;2022-09-20T09:14:34;13.40;99.90
2447;DHT22;26430;48.818;9.244;2022-09-20T09:17:20;13.50;99.90
2447;DHT22;26430;48.818;9.244;2022-09-20T09:19:49;13.70;99.90
2447;DHT22;26430;48.818;9.244;2022-09-20T09:33:24;13.50;99.90
2447;DHT22;26430;48.818;9.244;2022-09-20T09:38:30;13.70;99.90
2447;DHT22;26430;48.818;9.244;2022-09-20T09:41:02;13.80;99.90
2447;DHT22;26430;48.818;9.244;2022-09-20T09:43:32;13.80;99.90
2447;DHT22;26430;48.818;9.244;2022-09-20T09:46:22;14.20;99.90
2447;DHT22;26430;48.818;9.244;2022-09-20T09:49:14;14.60;99.90
2447;DHT22;26430;48.818;9.244;2022-09-20T09:51:40;14.60;99.90
2447;DHT22;26430;48.818;9.244;2022-09-20T09:54:16;14.60;99.90
2447;DHT22;26430;48.818;9.244;2022-09-20T10:00:08;14.80;99.90
2447;DHT22;26430;48.818;9.244;2022-09-20T10:05:57;15.10;99.90
2447;DHT22;26430;48.818;9.244;2022-09-20T10:08:50;15.40;99.90
2447;DHT22;26430;48.818;9.244;2022-09-20T10:13:52;15.50;99.90
2447;DHT22;26430;48.818;9.244;2022-09-20T10:35:01;15.00;99.90
2447;DHT22;26430;48.818;9.244;2022-09-20T10:46:32;14.50;99.90
2447;DHT22;26430;48.818;9.244;2022-09-20T11:00:37;15.90;99.90
2447;DHT22;26430;48.818;9.244;2022-09-20T11:08:46;17.40;99.90
2447;DHT22;26430;48.818;9.244;2022-09-20T11:11:26;17.30;99.90
2447;DHT22;26430;48.818;9.244;2022-09-20T11:16:41;16.60;99.90
2447;DHT22;26430;48.818;9.244;2022-09-20T11:19:31;16.40;99.90
2447;DHT22;26430;48.818;9.244;2022-09-20T11:24:44;16.10;99.90
2447;DHT22;26430;48.818;9.244;2022-09-20T11:27:27;15.90;99.90
2447;DHT22;26430;48.818;9.244;2022-09-20T11:30:05;15.70;99.90
2447;DHT22;26430;48.818;9.244;2022-09-20T11:32:40;15.60;99.90
2447;DHT22;26430;48.818;9.244;2022-09-20T11:35:35;15.90;99.90
2447;DHT22;26430;48.818;9.244;2022-09-20T11:38:27;16.30;99.90
2447;DHT22;26430;48.818;9.244;2022-09-20T11:41:03;16.70;99.90
2447;DHT22;26430;48.818;9.244;2022-09-20T11:43:30;17.30;99.90
2447;DHT22;26430;48.818;9.244;2022-09-20T11:46:05;17.10;99.90
2447;DHT22;26430;48.818;9.244;2022-09-20T11:48:42;17.70;99.90
2447;DHT22;26430;48.818;9.244;2022-09-20T11:51:31;17.40;99.90
2447;DHT22;26430;48.818;9.244;2022-09-20T11:54:13;17.70;99.90
2447;DHT22;26430;48.818;9.244;2022-09-20T11:56:52;17.90;99.90
2447;DHT22;26430;48.818;9.244;2022-09-20T11:59:32;17.40;99.90
2447;DHT22;26430;48.818;9.244;2022-09-20T12:02:00;17.80;99.90
2447;DHT22;26430;48.818;9.244;2022-09-20T12:04:33;18.00;99.90
2447;DHT22;26430;48.818;9.244;2022-09-20T12:07:05;18.10;99.90
2447;DHT22;26430;48.818;9.244;2022-09-20T12:09:35;17.50;99.90
2447;DHT22;26430;48.818;9.244;2022-09-20T12:14:59;17.70;99.90
2447;DHT22;26430;48.818;9.244;2022-09-20T12:26:11;17.30;99.90
2447;DHT22;26430;48.818;9.244;2022-09-20T12:29:00;17.40;99.90
2447;DHT22;26430;48.818;9.244;2022-09-20T12:34:32;17.60;99.90
2447;DHT22;26430;48.818;9.244;2022-09-20T12:39:33;17.70;99.90
2447;DHT22;26430;48.818;9.244;2022-09-20T12:42:00;18.00;99.90
2447;DHT22;26430;48.818;9.244;2022-09-20T12:44:31;18.10;99.80
2447;DHT22;26430;48.818;9.244;2022-09-20T12:47:29;18.30;99.30
2447;DHT22;26430;48.818;9.244;2022-09-20T12:50:01;18.30;98.50
2447;DHT22;26430;48.818;9.244;2022-09-20T12:52:47;18.30;98.50
2447;DHT22;26430;48.818;9.244;2022-09-20T13:00:47;18.50;97.50
2447;DHT22;26430;48.818;9.244;2022-09-20T13:14:23;18.30;96.10
2447;DHT22;26430;48.818;9.244;2022-09-20T13:19:45;18.10;96.60
2447;DHT22;26430;48.818;9.244;2022-09-20T13:22:16;17.70;96.80
2447;DHT22;26430;48.818;9.244;2022-09-20T13:24:46;17.70;97.10
2447;DHT22;26430;48.818;9.244;2022-09-20T13:27:19;17.70;98.40
2447;DHT22;26430;48.818;9.244;2022-09-20T13:29:46;17.80;96.80
2447;DHT22;26430;48.818;9.244;2022-09-20T13:32:29;17.40;98.50
2447;DHT22;26430;48.818;9.244;2022-09-20T13:35:20;17.50;99.90
2447;DHT22;26430;48.818;9.244;2022-09-20T13:37:54;17.50;99.90
2447;DHT22;26430;48.818;9.244;2022-09-20T13:40:34;17.40;99.90
2447;DHT22;26430;48.818;9.244;2022-09-20T13:43:35;17.20;99.90
2447;DHT22;26430;48.818;9.244;2022-09-20T13:46:21;17.30;99.90
2447;DHT22;26430;48.818;9.244;2022-09-20T13:48:52;17.20;99.90
2447;DHT22;26430;48.818;9.244;2022-09-20T13:51:19;17.20;99.90
2447;DHT22;26430;48.818;9.244;2022-09-20T13:53:47;17.00;99.90
2447;DHT22;26430;48.818;9.244;2022-09-20T13:56:27;16.80;99.90
2447;DHT22;26430;48.818;9.244;2022-09-20T13:58:54;16.80;99.90
2447;DHT22;26430;48.818;9.244;2022-09-20T14:01:25;16.70;99.90
2447;DHT22;26430;48.818;9.244;2022-09-20T14:03:52;16.60;99.90
2447;DHT22;26430;48.818;9.244;2022-09-20T14:06:23;16.60;99.90
2447;DHT22;26430;48.818;9.244;2022-09-20T14:08:52;16.50;99.90
2447;DHT22;26430;48.818;9.244;2022-09-20T14:11:29;16.10;99.90
2447;DHT22;26430;48.818;9.244;2022-09-20T14:14:01;15.70;99.90
2447;DHT22;26430;48.818;9.244;2022-09-20T14:16:33;15.50;99.90
2447;DHT22;26430;48.818;9.244;2022-09-20T14:19:04;15.30;99.90
2447;DHT22;26430;48.818;9.244;2022-09-20T14:21:33;15.10;99.90
2447;DHT22;26430;48.818;9.244;2022-09-20T14:24:12;15.10;99.90
2447;DHT22;26430;48.818;9.244;2022-09-20T14:27:22;15.00;99.90
2447;DHT22;26430;48.818;9.244;2022-09-20T14:29:51;14.70;99.90
2447;DHT22;26430;48.818;9.244;2022-09-20T14:34:56;14.50;99.90
2447;DHT22;26430;48.818;9.244;2022-09-20T14:37:35;14.50;99.90
2447;DHT22;26430;48.818;9.244;2022-09-20T14:40:25;14.40;99.90
2447;DHT22;26430;48.818;9.244;2022-09-20T14:43:01;14.40;99.90
2447;DHT22;26430;48.818;9.244;2022-09-20T14:45:33;14.40;99.90
2447;DHT22;26430;48.818;9.244;2022-09-20T14:53:52;14.60;99.90
2447;DHT22;26430;48.818;9.244;2022-09-20T14:56:36;14.50;99.90
2447;DHT22;26430;48.818;9.244;2022-09-20T15:01:40;14.50;99.90
2447;DHT22;26430;48.818;9.244;2022-09-20T15:04:20;14.70;99.90
2447;DHT22;26430;48.818;9.244;2022-09-20T15:06:47;14.80;99.90
2447;DHT22;26430;48.818;9.244;2022-09-20T15:09:13;15.00;99.90
2447;DHT22;26430;48.818;9.244;2022-09-20T15:11:39;14.90;99.90
2447;DHT22;26430;48.818;9.244;2022-09-20T15:14:05;15.10;99.90
2447;DHT22;26430;48.818;9.244;2022-09-20T15:16:31;15.20;99.90
2447;DHT22;26430;48.818;9.244;2022-09-20T15:18:58;15.20;99.90
2447;DHT22;26430;48.818;9.244;2022-09-20T15:21:24;15.40;99.90
2447;DHT22;26430;48.818;9.244;2022-09-20T15:23:51;15.30;99.90
2447;DHT22;26430;48.818;9.244;2022-09-20T15:26:19;14.60;99.90
2447;DHT22;26430;48.818;9.244;2022-09-20T15:28:45;14.80;99.90
2447;DHT22;26430;48.818;9.244;2022-09-20T15:31:10;14.90;99.90
2447;DHT22;26430;48.818;9.244;2022-09-20T15:33:37;15.10;99.90
2447;DHT22;26430;48.818;9.244;2022-09-20T15:36:03;15.20;99.90
2447;DHT22;26430;48.818;9.244;2022-09-20T15:38:29;15.40;99.90
2447;DHT22;26430;48.818;9.244;2022-09-20T15:41:00;15.60;99.90
2447;DHT22;26430;48.818;9.244;2022-09-20T15:43:28;15.70;99.90
2447;DHT22;26430;48.818;9.244;2022-09-20T15:46:00;15.60;99.90
2447;DHT22;26430;48.818;9.244;2022-09-20T15:48:29;15.50;99.90
2447;DHT22;26430;48.818;9.244;2022-09-20T15:51:00;15.50;99.90
2447;DHT22;26430;48.818;9.244;2022-09-20T15:53:47;15.50;99.90
2447;DHT22;26430;48.818;9.244;2022-09-20T15:56:21;15.60;99.90
2447;DHT22;26430;48.818;9.244;2022-09-20T15:58:51;15.60;99.90
2447;DHT22;26430;48.818;9.244;2022-09-20T16:03:53;15.40;99.90
2447;DHT22;26430;48.818;9.244;2022-09-20T16:06:19;15.40;99.90
2447;DHT22;26430;48.818;9.244;2022-09-20T16:08:45;15.40;99.90
2447;DHT22;26430;48.818;9.244;2022-09-20T16:11:16;15.50;99.90
2447;DHT22;26430;48.818;9.244;2022-09-20T16:13:42;15.50;99.90
2447;DHT22;26430;48.818;9.244;2022-09-20T16:16:09;15.50;99.90
2447;DHT22;26430;48.818;9.244;2022-09-20T16:18:37;15.30;99.90
2447;DHT22;26430;48.818;9.244;2022-09-20T16:21:22;15.40;99.90
2447;DHT22;26430;48.818;9.244;2022-09-20T16:23:55;15.20;99.90
2447;DHT22;26430;48.818;9.244;2022-09-20T16:26:23;15.20;99.90
2447;DHT22;26430;48.818;9.244;2022-09-20T16:28:50;15.20;99.90
2447;DHT22;26430;48.818;9.244;2022-09-20T16:31:41;15.10;99.90
2447;DHT22;26430;48.818;9.244;2022-09-20T16:34:21;15.00;99.90
2447;DHT22;26430;48.818;9.244;2022-09-20T16:36:52;15.00;99.90
2447;DHT22;26430;48.818;9.244;2022-09-20T16:39:19;14.80;99.90
2447;DHT22;26430;48.818;9.244;2022-09-20T16:41:46;14.70;99.90
2447;DHT22;26430;48.818;9.244;2022-09-20T16:44:12;14.70;99.90
2447;DHT22;26430;48.818;9.244;2022-09-20T16:46:38;14.60;99.90
2447;DHT22;26430;48.818;9.244;2022-09-20T16:49:06;14.50;99.90
2447;DHT22;26430;48.818;9.244;2022-09-20T16:51:35;14.40;99.90
2447;DHT22;26430;48.818;9.244;2022-09-20T16:54:03;14.40;99.90
2447;DHT22;26430;48.818;9.244;2022-09-20T16:56:33;14.30;99.90
2447;DHT22;26430;48.818;9.244;2022-09-20T16:59:03;14.10;99.90
2447;DHT22;26430;48.818;9.244;2022-09-20T17:01:30;14.00;99.90
2447;DHT22;26430;48.818;9.244;2022-09-20T17:03:57;14.00;99.90
2447;DHT22;26430;48.818;9.244;2022-09-20T17:06:24;13.90;99.90
2447;DHT22;26430;48.818;9.244;2022-09-20T17:08:55;13.80;99.90
2447;DHT22;26430;48.818;9.244;2022-09-20T17:11:24;13.70;99.90
2447;DHT22;26430;48.818;9.244;2022-09-20T17:13:51;13.70;99.90
2447;DHT22;26430;48.818;9.244;2022-09-20T17:16:19;13.70;99.90
2447;DHT22;26430;48.818;9.244;2022-09-20T17:18:49;13.70;99.90
2447;DHT22;26430;48.818;9.244;2022-09-20T17:21:17;13.50;99.90
2447;DHT22;26430;48.818;9.244;2022-09-20T17:23:45;13.50;99.90
2447;DHT22;26430;48.818;9.244;2022-09-20T17:26:16;13.40;99.90
2447;DHT22;26430;48.818;9.244;2022-09-20T17:28:48;13.40;99.90
2447;DHT22;26430;48.818;9.244;2022-09-20T17:31:17;13.40;99.90
2447;DHT22;26430;48.818;9.244;2022-09-20T17:33:44;13.40;99.90
2447;DHT22;26430;48.818;9.244;2022-09-20T17:36:15;13.40;99.90
2447;DHT22;26430;48.818;9.244;2022-09-20T17:38:42;13.60;99.90
2447;DHT22;26430;48.818;9.244;2022-09-20T17:41:17;13.80;99.90
2447;DHT22;26430;48.818;9.244;2022-09-20T17:43:45;13.60;99.90
2447;DHT22;26430;48.818;9.244;2022-09-20T17:46:12;13.60;99.90
2447;DHT22;26430;48.818;9.244;2022-09-20T17:48:42;13.40;99.90
2447;DHT22;26430;48.818;9.244;2022-09-20T17:51:14;13.50;99.90
2447;DHT22;26430;48.818;9.244;2022-09-20T17:53:40;13.60;99.90
2447;DHT22;26430;48.818;9.244;2022-09-20T17:56:06;13.70;99.90
2447;DHT22;26430;48.818;9.244;2022-09-20T17:58:33;13.80;99.90
2447;DHT22;26430;48.818;9.244;2022-09-20T18:01:09;13.60;99.90
2447;DHT22;26430;48.818;9.244;2022-09-20T18:03:37;13.40;99.90
2447;DHT22;26430;48.818;9.244;2022-09-20T18:06:24;13.20;99.90
2447;DHT22;26430;48.818;9.244;2022-09-20T18:08:53;13.00;99.90
2447;DHT22;26430;48.818;9.244;2022-09-20T18:11:34;12.90;99.90
2447;DHT22;26430;48.818;9.244;2022-09-20T18:14:00;12.70;99.90
2447;DHT22;26430;48.818;9.244;2022-09-20T18:16:27;12.70;99.90
2447;DHT22;26430;48.818;9.244;2022-09-20T18:18:53;12.60;99.90
2447;DHT22;26430;48.818;9.244;2022-09-20T18:21:21;12.60;99.90
2447;DHT22;26430;48.818;9.244;2022-09-20T18:23:48;12.50;99.90
2447;DHT22;26430;48.818;9.244;2022-09-20T18:26:19;12.50;99.90
2447;DHT22;26430;48.818;9.244;2022-09-20T18:31:24;12.40;99.90
2447;DHT22;26430;48.818;9.244;2022-09-20T18:33:54;12.50;99.90
2447;DHT22;26430;48.818;9.244;2022-09-20T18:36:20;12.50;99.90
2447;DHT22;26430;48.818;9.244;2022-09-20T18:38:50;12.60;99.90
2447;DHT22;26430;48.818;9.244;2022-09-20T18:41:24;12.50;99.90
2447;DHT22;26430;48.818;9.244;2022-09-20T18:43:52;12.60;99.90
2447;DHT22;26430;48.818;9.244;2022-09-20T18:46:19;12.60;99.90
2447;DHT22;26430;48.818;9.244;2022-09-20T18:48:50;12.40;99.90
2447;DHT22;26430;48.818;9.244;2022-09-20T18:51:17;12.20;99.90
2447;DHT22;26430;48.818;9.244;2022-09-20T18:53:42;12.10;99.90
2447;DHT22;26430;48.818;9.244;2022-09-20T18:56:24;12.00;99.90
2447;DHT22;26430;48.818;9.244;2022-09-20T18:59:03;11.90;99.90
2447;DHT22;26430;48.818;9.244;2022-09-20T19:02:01;11.80;99.90
2447;DHT22;26430;48.818;9.244;2022-09-20T19:26:37;11.30;99.90
2447;DHT22;26430;48.818;9.244;2022-09-20T19:31:47;11.20;99.90
2447;DHT22;26430;48.818;9.244;2022-09-20T19:34:20;11.10;99.90
2447;DHT22;26430;48.818;9.244;2022-09-20T19:45:06;11.00;99.90
2447;DHT22;26430;48.818;9.244;2022-09-20T19:53:03;10.90;99.90
2447;DHT22;26430;48.818;9.244;2022-09-20T19:55:33;10.90;99.90
2447;DHT22;26430;48.818;9.244;2022-09-20T19:57:59;10.80;99.90
2447;DHT22;26430;48.818;9.244;2022-09-20T20:00:26;10.80;99.90
2447;DHT22;26430;48.818;9.244;2022-09-20T20:02:52;10.80;99.90
2447;DHT22;26430;48.818;9.244;2022-09-20T20:05:21;10.80;99.90
2447;DHT22;26430;48.818;9.244;2022-09-20T20:19:45;10.70;99.90
2447;DHT22;26430;48.818;9.244;2022-09-20T20:25:29;10.50;99.90
2447;DHT22;26430;48.818;9.244;2022-09-20T20:27:59;10.50;99.90
2447;DHT22;26430;48.818;9.244;2022-09-20T20:30:24;10.50;99.90
2447;DHT22;26430;48.818;9.244;2022-09-20T20:32:56;10.50;99.90
2447;DHT22;26430;48.818;9.244;2022-09-20T20:35:25;10.50;99.90
2447;DHT22;26430;48.818;9.244;2022-09-20T20:37:52;10.50;99.90
2447;DHT22;26430;48.818;9.244;2022-09-20T20:40:18;10.50;99.90
2447;DHT22;26430;48.818;9.244;2022-09-20T20:42:44;10.60;99.90
2447;DHT22;26430;48.818;9.244;2022-09-20T20:45:10;10.60;99.90
2447;DHT22;26430;48.818;9.244;2022-09-20T20:47:37;10.50;99.90
2447;DHT22;26430;48.818;9.244;2022-09-20T20:50:04;10.60;99.90
2447;DHT22;26430;48.818;9.244;2022-09-20T20:52:30;10.50;99.90
2447;DHT22;26430;48.818;9.244;2022-09-20T20:54:56;10.40;99.90
2447;DHT22;26430;48.818;9.244;2022-09-20T20:57:25;10.40;99.90
2447;DHT22;26430;48.818;9.244;2022-09-20T20:59:50;10.30;99.90
2447;DHT22;26430;48.818;9.244;2022-09-20T21:02:16;10.30;99.90
2447;DHT22;26430;48.818;9.244;2022-09-20T21:04:42;10.30;99.90
2447;DHT22;26430;48.818;9.244;2022-09-20T21:07:08;10.30;99.90
2447;DHT22;26430;48.818;9.244;2022-09-20T21:09:33;10.30;99.90
2447;DHT22;26430;48.818;9.244;2022-09-20T21:11:59;10.30;99.90
2447;DHT22;26430;48.818;9.244;2022-09-20T21:14:25;10.30;99.90
2447;DHT22;26430;48.818;9.244;2022-09-20T21:16:50;10.30;99.90
2447;DHT22;26430;48.818;9.244;2022-09-20T21:19:16;10.30;99.90
2447;DHT22;26430;48.818;9.244;2022-09-20T21:21:44;10.40;99.90
2447;DHT22;26430;48.818;9.244;2022-09-20T21:24:14;10.30;99.90
2447;DHT22;26430;48.818;9.244;2022-09-20T21:26:42;10.30;99.90
2447;DHT22;26430;48.818;9.244;2022-09-20T21:29:12;10.70;99.90
2447;DHT22;26430;48.818;9.244;2022-09-20T21:31:42;10.60;99.90
2447;DHT22;26430;48.818;9.244;2022-09-20T21:34:09;10.40;99.90
2447;DHT22;26430;48.818;9.244;2022-09-20T21:36:36;10.20;99.90
2447;DHT22;26430;48.818;9.244;2022-09-20T21:39:03;10.10;99.90
2447;DHT22;26430;48.818;9.244;2022-09-20T21:41:31;10.10;99.90
2447;DHT22;26430;48.818;9.244;2022-09-20T21:43:59;10.10;99.90
2447;DHT22;26430;48.818;9.244;2022-09-20T21:46:31;10.00;99.90
2447;DHT22;26430;48.818;9.244;2022-09-20T21:49:05;9.90;99.90
2447;DHT22;26430;48.818;9.244;2022-09-20T21:51:33;9.90;99.90
2447;DHT22;26430;48.818;9.244;2022-09-20T21:54:00;9.80;99.90
2447;DHT22;26430;48.818;9.244;2022-09-20T21:56:29;9.80;99.90
2447;DHT22;26430;48.818;9.244;2022-09-20T21:58:55;9.80;99.90
2447;DHT22;26430;48.818;9.244;2022-09-20T22:01:24;9.80;99.90
2447;DHT22;26430;48.818;9.244;2022-09-20T22:03:57;9.80;99.90
2447;DHT22;26430;48.818;9.244;2022-09-20T22:06:31;9.80;99.90
2447;DHT22;26430;48.818;9.244;2022-09-20T22:08:59;9.80;99.90
2447;DHT22;26430;48.818;9.244;2022-09-20T22:11:30;9.70;99.90
2447;DHT22;26430;48.818;9.244;2022-09-20T22:13:56;9.60;99.90
2447;DHT22;26430;48.818;9.244;2022-09-20T22:16:28;9.60;99.90
2447;DHT22;26430;48.818;9.244;2022-09-20T22:18:54;9.60;99.90
2447;DHT22;26430;48.818;9.244;2022-09-20T22:23:50;9.40;99.90
2447;DHT22;26430;48.818;9.244;2022-09-20T22:26:19;9.40;99.90
2447;DHT22;26430;48.818;9.244;2022-09-20T22:28:45;9.30;99.90
2447;DHT22;26430;48.818;9.244;2022-09-20T22:31:15;9.30;99.90
2447;DHT22;26430;48.818;9.244;2022-09-20T22:33:44;9.20;99.90